sensor_id;sensor_type;location;lat;lon;timestamp;temperature;humidity
285;DHT22;127;48.770;9.212;2022-11-20T00:01:37;4.90;1.00
285;DHT22;127;48.770;9.212;2022-11-20T00:04:05;4.90;1.00
285;DHT22;127;48.770;9.212;2022-11-20T00:06:36;4.90;1.00
285;DHT22;127;48.770;9.212;2022-11-20T00:09:05;4.90;1.00
285;DHT22;127;48.770;9.212;2022-11-20T00:11:34;5.00;1.00
285;DHT22;127;48.770;9.212;2022-11-20T00:14:02;5.00;1.00
285;DHT22;127;48.770;9.212;2022-11-20T00:16:32;5.00;1.00
285;DHT22;127;48.770;9.212;2022-11-20T00:19:01;5.00;1.00
285;DHT22;127;48.770;9.212;2022-11-20T00:21:30;5.10;1.00
285;DHT22;127;48.770;9.212;2022-11-20T00:24:02;5.10;1.00
285;DHT22;127;48.770;9.212;2022-11-20T00:26:31;5.10;1.00
285;DHT22;127;48.770;9.212;2022-11-20T00:29:00;5.20;1.00
285;DHT22;127;48.770;9.212;2022-11-20T00:31:30;5.20;1.00
285;DHT22;127;48.770;9.212;2022-11-20T00:33:59;5.20;1.00
285;DHT22;127;48.770;9.212;2022-11-20T00:36:31;5.20;1.00
285;DHT22;127;48.770;9.212;2022-11-20T00:39:02;5.20;1.00
285;DHT22;127;48.770;9.212;2022-11-20T00:41:31;5.30;99.90
285;DHT22;127;48.770;9.212;2022-11-20T00:44:00;5.40;99.90
285;DHT22;127;48.770;9.212;2022-11-20T00:46:29;5.40;99.90
285;DHT22;127;48.770;9.212;2022-11-20T00:48:58;5.50;99.90
285;DHT22;127;48.770;9.212;2022-11-20T00:51:27;5.60;99.90
285;DHT22;127;48.770;9.212;2022-11-20T00:53:56;5.60;99.90
285;DHT22;127;48.770;9.212;2022-11-20T00:56:28;5.70;99.90
285;DHT22;127;48.770;9.212;2022-11-20T00:58:59;5.70;99.90
285;DHT22;127;48.770;9.212;2022-11-20T01:01:28;5.80;99.90
285;DHT22;127;48.770;9.212;2022-11-20T01:03:59;5.80;99.90
285;DHT22;127;48.770;9.212;2022-11-20T01:06:29;5.80;99.90
285;DHT22;127;48.770;9.212;2022-11-20T01:09:00;5.80;99.90
285;DHT22;127;48.770;9.212;2022-11-20T01:11:34;5.80;99.90
285;DHT22;127;48.770;9.212;2022-11-20T01:14:05;5.90;99.90
285;DHT22;127;48.770;9.212;2022-11-20T01:16:36;5.90;99.90
285;DHT22;127;48.770;9.212;2022-11-20T01:19:06;5.90;99.90
285;DHT22;127;48.770;9.212;2022-11-20T01:21:37;5.90;99.90
285;DHT22;127;48.770;9.212;2022-11-20T01:24:08;5.90;99.90
285;DHT22;127;48.770;9.212;2022-11-20T01:26:43;5.90;99.90
285;DHT22;127;48.770;9.212;2022-11-20T01:29:14;5.90;99.90
285;DHT22;127;48.770;9.212;2022-11-20T01:31:43;5.90;99.90
285;DHT22;127;48.770;9.212;2022-11-20T01:34:14;5.90;99.90
285;DHT22;127;48.770;9.212;2022-11-20T01:36:43;5.90;99.90
285;DHT22;127;48.770;9.212;2022-11-20T01:39:14;5.90;99.90
285;DHT22;127;48.770;9.212;2022-11-20T01:41:47;5.90;99.90
285;DHT22;127;48.770;9.212;2022-11-20T01:44:48;6.00;99.90
285;DHT22;127;48.770;9.212;2022-11-20T01:47:21;5.90;99.90
285;DHT22;127;48.770;9.212;2022-11-20T01:49:55;5.80;99.90
285;DHT22;127;48.770;9.212;2022-11-20T01:52:27;5.80;99.90
285;DHT22;127;48.770;9.212;2022-11-20T01:55:01;5.70;99.90
285;DHT22;127;48.770;9.212;2022-11-20T01:57:35;5.60;99.90
285;DHT22;127;48.770;9.212;2022-11-20T02:00:08;5.40;99.90
285;DHT22;127;48.770;9.212;2022-11-20T02:02:39;5.40;99.90
285;DHT22;127;48.770;9.212;2022-11-20T02:05:14;5.30;99.90
285;DHT22;127;48.770;9.212;2022-11-20T02:07:45;5.20;99.90
285;DHT22;127;48.770;9.212;2022-11-20T02:10:14;5.10;99.90
285;DHT22;127;48.770;9.212;2022-11-20T02:12:46;5.10;99.90
285;DHT22;127;48.770;9.212;2022-11-20T02:15:27;5.10;99.90
285;DHT22;127;48.770;9.212;2022-11-20T02:17:56;5.10;99.90
285;DHT22;127;48.770;9.212;2022-11-20T02:20:25;5.10;99.90
285;DHT22;127;48.770;9.212;2022-11-20T02:22:57;5.20;99.90
285;DHT22;127;48.770;9.212;2022-11-20T02:25:32;5.30;99.90
285;DHT22;127;48.770;9.212;2022-11-20T02:28:02;5.30;99.90
285;DHT22;127;48.770;9.212;2022-11-20T02:30:31;5.20;99.90
285;DHT22;127;48.770;9.212;2022-11-20T02:32:59;5.30;99.90
285;DHT22;127;48.770;9.212;2022-11-20T02:35:41;5.30;99.90
285;DHT22;127;48.770;9.212;2022-11-20T02:38:10;5.20;99.90
285;DHT22;127;48.770;9.212;2022-11-20T02:40:42;5.20;99.90
285;DHT22;127;48.770;9.212;2022-11-20T02:43:10;5.20;99.90
285;DHT22;127;48.770;9.212;2022-11-20T02:45:39;5.30;99.90
285;DHT22;127;48.770;9.212;2022-11-20T02:48:08;5.30;99.90
285;DHT22;127;48.770;9.212;2022-11-20T02:50:38;5.20;99.90
285;DHT22;127;48.770;9.212;2022-11-20T02:53:07;5.20;99.90
285;DHT22;127;48.770;9.212;2022-11-20T02:55:35;5.20;99.90
285;DHT22;127;48.770;9.212;2022-11-20T02:58:07;5.30;99.90
285;DHT22;127;48.770;9.212;2022-11-20T03:00:35;5.30;99.90
285;DHT22;127;48.770;9.212;2022-11-20T03:03:04;5.40;99.90
285;DHT22;127;48.770;9.212;2022-11-20T03:05:33;5.50;99.90
285;DHT22;127;48.770;9.212;2022-11-20T03:08:01;5.50;99.90
285;DHT22;127;48.770;9.212;2022-11-20T03:10:30;5.50;99.90
285;DHT22;127;48.770;9.212;2022-11-20T03:12:58;5.50;99.90
285;DHT22;127;48.770;9.212;2022-11-20T03:15:30;5.60;99.90
285;DHT22;127;48.770;9.212;2022-11-20T03:17:58;5.60;99.90
285;DHT22;127;48.770;9.212;2022-11-20T03:20:27;5.60;99.90
285;DHT22;127;48.770;9.212;2022-11-20T03:22:55;5.60;99.90
285;DHT22;127;48.770;9.212;2022-11-20T03:25:24;5.60;99.90
285;DHT22;127;48.770;9.212;2022-11-20T03:27:53;5.50;99.90
285;DHT22;127;48.770;9.212;2022-11-20T03:30:22;5.40;99.90
285;DHT22;127;48.770;9.212;2022-11-20T03:32:55;5.40;99.90
285;DHT22;127;48.770;9.212;2022-11-20T03:35:24;5.40;99.90
285;DHT22;127;48.770;9.212;2022-11-20T03:37:52;5.30;99.90
285;DHT22;127;48.770;9.212;2022-11-20T03:40:21;5.30;99.90
285;DHT22;127;48.770;9.212;2022-11-20T03:42:50;5.20;99.90
285;DHT22;127;48.770;9.212;2022-11-20T03:45:18;5.10;99.90
285;DHT22;127;48.770;9.212;2022-11-20T03:47:47;5.00;99.90
285;DHT22;127;48.770;9.212;2022-11-20T03:50:19;5.00;99.90
285;DHT22;127;48.770;9.212;2022-11-20T03:52:48;4.80;99.90
285;DHT22;127;48.770;9.212;2022-11-20T03:55:17;4.80;99.90
285;DHT22;127;48.770;9.212;2022-11-20T03:57:45;4.80;99.90
285;DHT22;127;48.770;9.212;2022-11-20T04:00:15;4.70;99.90
285;DHT22;127;48.770;9.212;2022-11-20T04:02:44;4.60;99.90
285;DHT22;127;48.770;9.212;2022-11-20T04:05:12;4.60;99.90
285;DHT22;127;48.770;9.212;2022-11-20T04:07:43;4.50;99.90
285;DHT22;127;48.770;9.212;2022-11-20T04:10:12;4.50;99.90
285;DHT22;127;48.770;9.212;2022-11-20T04:12:41;4.40;99.90
285;DHT22;127;48.770;9.212;2022-11-20T04:15:10;4.40;99.90
285;DHT22;127;48.770;9.212;2022-11-20T04:17:41;4.40;99.90
285;DHT22;127;48.770;9.212;2022-11-20T04:20:10;4.40;99.90
285;DHT22;127;48.770;9.212;2022-11-20T04:22:42;4.40;99.90
285;DHT22;127;48.770;9.212;2022-11-20T04:25:11;4.50;99.90
285;DHT22;127;48.770;9.212;2022-11-20T04:27:40;4.50;99.90
285;DHT22;127;48.770;9.212;2022-11-20T04:30:10;4.50;99.90
285;DHT22;127;48.770;9.212;2022-11-20T04:32:39;4.50;99.90
285;DHT22;127;48.770;9.212;2022-11-20T04:35:08;4.60;99.90
285;DHT22;127;48.770;9.212;2022-11-20T04:37:36;4.60;99.90
285;DHT22;127;48.770;9.212;2022-11-20T04:40:09;4.60;99.90
285;DHT22;127;48.770;9.212;2022-11-20T04:42:38;4.50;99.90
285;DHT22;127;48.770;9.212;2022-11-20T04:45:07;4.50;99.90
285;DHT22;127;48.770;9.212;2022-11-20T04:47:36;4.60;99.90
285;DHT22;127;48.770;9.212;2022-11-20T04:50:05;4.60;99.90
285;DHT22;127;48.770;9.212;2022-11-20T04:52:34;4.70;99.90
285;DHT22;127;48.770;9.212;2022-11-20T04:55:04;4.70;99.90
285;DHT22;127;48.770;9.212;2022-11-20T04:57:35;4.70;99.90
285;DHT22;127;48.770;9.212;2022-11-20T05:00:05;4.80;99.90
285;DHT22;127;48.770;9.212;2022-11-20T05:02:34;4.80;99.90
285;DHT22;127;48.770;9.212;2022-11-20T05:05:02;4.90;99.90
285;DHT22;127;48.770;9.212;2022-11-20T05:07:31;5.00;99.90
285;DHT22;127;48.770;9.212;2022-11-20T05:10:00;5.00;99.90
285;DHT22;127;48.770;9.212;2022-11-20T05:12:28;5.00;99.90
285;DHT22;127;48.770;9.212;2022-11-20T05:14:59;5.00;99.90
285;DHT22;127;48.770;9.212;2022-11-20T05:17:28;5.00;99.90
285;DHT22;127;48.770;9.212;2022-11-20T05:19:57;5.00;99.90
285;DHT22;127;48.770;9.212;2022-11-20T05:22:25;5.00;99.90
285;DHT22;127;48.770;9.212;2022-11-20T05:24:54;5.00;99.90
285;DHT22;127;48.770;9.212;2022-11-20T05:27:22;5.00;99.90
285;DHT22;127;48.770;9.212;2022-11-20T05:29:51;5.10;99.90
285;DHT22;127;48.770;9.212;2022-11-20T05:32:22;5.10;99.90
285;DHT22;127;48.770;9.212;2022-11-20T05:34:52;5.10;99.90
285;DHT22;127;48.770;9.212;2022-11-20T05:37:20;5.10;99.90
285;DHT22;127;48.770;9.212;2022-11-20T05:39:49;5.20;99.90
285;DHT22;127;48.770;9.212;2022-11-20T05:42:18;5.20;99.90
285;DHT22;127;48.770;9.212;2022-11-20T05:44:59;5.10;99.90
285;DHT22;127;48.770;9.212;2022-11-20T05:47:32;5.10;99.90
285;DHT22;127;48.770;9.212;2022-11-20T05:50:01;5.10;99.90
285;DHT22;127;48.770;9.212;2022-11-20T05:52:30;5.10;99.90
285;DHT22;127;48.770;9.212;2022-11-20T05:54:58;5.10;99.90
285;DHT22;127;48.770;9.212;2022-11-20T05:57:27;5.10;99.90
285;DHT22;127;48.770;9.212;2022-11-20T05:59:56;5.00;99.90
285;DHT22;127;48.770;9.212;2022-11-20T06:02:25;5.10;99.90
285;DHT22;127;48.770;9.212;2022-11-20T06:04:56;5.10;99.90
285;DHT22;127;48.770;9.212;2022-11-20T06:07:24;5.10;99.90
285;DHT22;127;48.770;9.212;2022-11-20T06:09:53;5.10;99.90
285;DHT22;127;48.770;9.212;2022-11-20T06:12:22;5.10;99.90
285;DHT22;127;48.770;9.212;2022-11-20T06:14:50;5.20;99.90
285;DHT22;127;48.770;9.212;2022-11-20T06:17:19;5.10;99.90
285;DHT22;127;48.770;9.212;2022-11-20T06:19:48;5.10;99.90
285;DHT22;127;48.770;9.212;2022-11-20T06:22:19;5.20;99.90
285;DHT22;127;48.770;9.212;2022-11-20T06:24:48;5.30;99.90
285;DHT22;127;48.770;9.212;2022-11-20T06:27:17;5.30;99.90
285;DHT22;127;48.770;9.212;2022-11-20T06:29:45;5.30;99.90
285;DHT22;127;48.770;9.212;2022-11-20T06:32:14;5.30;99.90
285;DHT22;127;48.770;9.212;2022-11-20T06:34:42;5.30;99.90
285;DHT22;127;48.770;9.212;2022-11-20T06:37:11;5.30;99.90
285;DHT22;127;48.770;9.212;2022-11-20T06:39:42;5.30;99.90
285;DHT22;127;48.770;9.212;2022-11-20T06:42:11;5.30;99.90
285;DHT22;127;48.770;9.212;2022-11-20T06:44:40;5.40;99.90
285;DHT22;127;48.770;9.212;2022-11-20T06:47:08;5.40;99.90
285;DHT22;127;48.770;9.212;2022-11-20T06:49:37;5.40;99.90
285;DHT22;127;48.770;9.212;2022-11-20T06:52:06;5.40;99.90
285;DHT22;127;48.770;9.212;2022-11-20T06:54:35;5.40;99.90
285;DHT22;127;48.770;9.212;2022-11-20T06:57:06;5.40;99.90
285;DHT22;127;48.770;9.212;2022-11-20T06:59:35;5.40;99.90
285;DHT22;127;48.770;9.212;2022-11-20T07:02:03;5.50;99.90
285;DHT22;127;48.770;9.212;2022-11-20T07:04:32;5.50;99.90
285;DHT22;127;48.770;9.212;2022-11-20T07:07:00;5.50;99.90
285;DHT22;127;48.770;9.212;2022-11-20T07:09:29;5.50;99.90
285;DHT22;127;48.770;9.212;2022-11-20T07:11:58;5.50;99.90
285;DHT22;127;48.770;9.212;2022-11-20T07:14:29;5.40;99.90
285;DHT22;127;48.770;9.212;2022-11-20T07:16:57;5.40;99.90
285;DHT22;127;48.770;9.212;2022-11-20T07:19:26;5.40;99.90
285;DHT22;127;48.770;9.212;2022-11-20T07:21:55;5.50;99.90
285;DHT22;127;48.770;9.212;2022-11-20T07:24:23;5.50;99.90
285;DHT22;127;48.770;9.212;2022-11-20T07:26:52;5.50;99.90
285;DHT22;127;48.770;9.212;2022-11-20T07:29:20;5.50;99.90
285;DHT22;127;48.770;9.212;2022-11-20T07:31:52;5.60;99.90
285;DHT22;127;48.770;9.212;2022-11-20T07:34:21;5.60;99.90
285;DHT22;127;48.770;9.212;2022-11-20T07:36:49;5.60;99.90
285;DHT22;127;48.770;9.212;2022-11-20T07:39:18;5.70;99.90
285;DHT22;127;48.770;9.212;2022-11-20T07:41:47;5.70;99.90
285;DHT22;127;48.770;9.212;2022-11-20T07:44:15;5.70;99.90
285;DHT22;127;48.770;9.212;2022-11-20T07:46:44;5.70;99.90
285;DHT22;127;48.770;9.212;2022-11-20T07:49:15;5.70;99.90
285;DHT22;127;48.770;9.212;2022-11-20T07:51:44;5.80;99.90
285;DHT22;127;48.770;9.212;2022-11-20T07:54:12;5.90;99.90
285;DHT22;127;48.770;9.212;2022-11-20T07:56:41;6.00;99.90
285;DHT22;127;48.770;9.212;2022-11-20T07:59:10;6.10;99.90
285;DHT22;127;48.770;9.212;2022-11-20T08:01:39;6.20;99.90
285;DHT22;127;48.770;9.212;2022-11-20T08:04:08;6.20;99.90
285;DHT22;127;48.770;9.212;2022-11-20T08:06:40;6.20;99.90
285;DHT22;127;48.770;9.212;2022-11-20T08:09:08;6.20;99.90
285;DHT22;127;48.770;9.212;2022-11-20T08:11:37;6.30;99.90
285;DHT22;127;48.770;9.212;2022-11-20T08:14:18;6.30;99.90
285;DHT22;127;48.770;9.212;2022-11-20T08:16:48;6.40;99.90
285;DHT22;127;48.770;9.212;2022-11-20T08:19:18;6.40;99.90
285;DHT22;127;48.770;9.212;2022-11-20T08:21:49;6.40;99.90
285;DHT22;127;48.770;9.212;2022-11-20T08:24:18;6.40;99.90
285;DHT22;127;48.770;9.212;2022-11-20T08:26:47;6.40;99.90
285;DHT22;127;48.770;9.212;2022-11-20T08:29:15;6.50;99.90
285;DHT22;127;48.770;9.212;2022-11-20T08:31:44;6.60;99.90
285;DHT22;127;48.770;9.212;2022-11-20T08:34:13;6.50;99.90
285;DHT22;127;48.770;9.212;2022-11-20T08:36:41;6.50;99.90
285;DHT22;127;48.770;9.212;2022-11-20T08:39:14;6.50;99.90
285;DHT22;127;48.770;9.212;2022-11-20T08:41:42;6.60;99.90
285;DHT22;127;48.770;9.212;2022-11-20T08:44:11;6.60;99.90
285;DHT22;127;48.770;9.212;2022-11-20T08:46:41;6.60;99.90
285;DHT22;127;48.770;9.212;2022-11-20T08:49:12;6.70;99.90
285;DHT22;127;48.770;9.212;2022-11-20T08:51:42;6.70;99.90
285;DHT22;127;48.770;9.212;2022-11-20T08:54:13;6.90;99.90
285;DHT22;127;48.770;9.212;2022-11-20T08:56:44;6.90;99.90
285;DHT22;127;48.770;9.212;2022-11-20T08:59:13;6.90;99.90
285;DHT22;127;48.770;9.212;2022-11-20T09:01:42;7.10;99.90
285;DHT22;127;48.770;9.212;2022-11-20T09:04:10;7.20;99.90
285;DHT22;127;48.770;9.212;2022-11-20T09:06:39;7.40;99.90
285;DHT22;127;48.770;9.212;2022-11-20T09:09:08;7.40;99.90
285;DHT22;127;48.770;9.212;2022-11-20T09:11:39;7.40;99.90
285;DHT22;127;48.770;9.212;2022-11-20T09:14:08;7.40;99.90
285;DHT22;127;48.770;9.212;2022-11-20T09:16:37;7.40;99.90
285;DHT22;127;48.770;9.212;2022-11-20T09:19:05;7.30;99.90
285;DHT22;127;48.770;9.212;2022-11-20T09:21:34;7.20;99.90
285;DHT22;127;48.770;9.212;2022-11-20T09:24:04;7.10;99.90
285;DHT22;127;48.770;9.212;2022-11-20T09:26:33;7.00;99.90
285;DHT22;127;48.770;9.212;2022-11-20T09:29:04;7.10;99.90
285;DHT22;127;48.770;9.212;2022-11-20T09:31:33;7.30;99.90
285;DHT22;127;48.770;9.212;2022-11-20T09:34:01;7.20;99.90
285;DHT22;127;48.770;9.212;2022-11-20T09:36:30;7.30;99.90
285;DHT22;127;48.770;9.212;2022-11-20T09:38:59;7.40;99.90
285;DHT22;127;48.770;9.212;2022-11-20T09:41:49;7.40;99.90
285;DHT22;127;48.770;9.212;2022-11-20T09:44:40;7.20;99.90
285;DHT22;127;48.770;9.212;2022-11-20T09:47:21;7.20;99.90
285;DHT22;127;48.770;9.212;2022-11-20T09:49:59;7.20;99.90
285;DHT22;127;48.770;9.212;2022-11-20T09:52:41;7.20;99.90
285;DHT22;127;48.770;9.212;2022-11-20T09:55:15;7.20;99.90
285;DHT22;127;48.770;9.212;2022-11-20T09:57:46;7.00;99.90
285;DHT22;127;48.770;9.212;2022-11-20T10:00:19;7.10;99.90
285;DHT22;127;48.770;9.212;2022-11-20T10:02:53;7.20;99.90
285;DHT22;127;48.770;9.212;2022-11-20T10:05:27;7.20;99.90
285;DHT22;127;48.770;9.212;2022-11-20T10:08:02;7.30;99.90
285;DHT22;127;48.770;9.212;2022-11-20T10:10:40;7.30;99.90
285;DHT22;127;48.770;9.212;2022-11-20T10:13:20;7.30;99.90
285;DHT22;127;48.770;9.212;2022-11-20T10:16:02;7.30;99.90
285;DHT22;127;48.770;9.212;2022-11-20T10:18:42;7.30;99.90
285;DHT22;127;48.770;9.212;2022-11-20T10:21:19;7.10;99.90
285;DHT22;127;48.770;9.212;2022-11-20T10:24:03;7.00;99.90
285;DHT22;127;48.770;9.212;2022-11-20T10:26:44;7.00;99.90
285;DHT22;127;48.770;9.212;2022-11-20T10:29:17;7.00;99.90
285;DHT22;127;48.770;9.212;2022-11-20T10:31:54;7.00;99.90
285;DHT22;127;48.770;9.212;2022-11-20T10:34:26;6.90;99.90
285;DHT22;127;48.770;9.212;2022-11-20T10:37:00;6.60;99.90
285;DHT22;127;48.770;9.212;2022-11-20T10:39:35;6.40;99.90
285;DHT22;127;48.770;9.212;2022-11-20T10:42:09;6.30;99.90
285;DHT22;127;48.770;9.212;2022-11-20T10:44:42;6.20;99.90
285;DHT22;127;48.770;9.212;2022-11-20T10:47:28;6.20;99.90
285;DHT22;127;48.770;9.212;2022-11-20T10:50:02;6.10;99.90
285;DHT22;127;48.770;9.212;2022-11-20T10:52:37;6.10;1.00
285;DHT22;127;48.770;9.212;2022-11-20T10:55:21;6.10;1.00
285;DHT22;127;48.770;9.212;2022-11-20T10:58:00;6.00;1.00
285;DHT22;127;48.770;9.212;2022-11-20T11:00:31;6.00;1.00
285;DHT22;127;48.770;9.212;2022-11-20T11:03:02;6.10;1.00
285;DHT22;127;48.770;9.212;2022-11-20T11:05:36;6.10;1.00
285;DHT22;127;48.770;9.212;2022-11-20T11:08:12;6.10;1.00
285;DHT22;127;48.770;9.212;2022-11-20T11:10:47;6.20;1.00
285;DHT22;127;48.770;9.212;2022-11-20T11:13:23;6.30;1.00
285;DHT22;127;48.770;9.212;2022-11-20T11:15:52;6.40;1.00
285;DHT22;127;48.770;9.212;2022-11-20T11:18:28;6.40;1.00
285;DHT22;127;48.770;9.212;2022-11-20T11:20:59;6.30;1.00
285;DHT22;127;48.770;9.212;2022-11-20T11:23:32;6.20;1.00
285;DHT22;127;48.770;9.212;2022-11-20T11:26:04;6.20;1.00
285;DHT22;127;48.770;9.212;2022-11-20T11:28:33;6.30;1.00
285;DHT22;127;48.770;9.212;2022-11-20T11:31:02;6.40;1.00
285;DHT22;127;48.770;9.212;2022-11-20T11:33:33;6.50;1.00
285;DHT22;127;48.770;9.212;2022-11-20T11:36:04;7.50;1.00
285;DHT22;127;48.770;9.212;2022-11-20T11:38:35;8.80;1.00
285;DHT22;127;48.770;9.212;2022-11-20T11:41:06;10.70;99.90
285;DHT22;127;48.770;9.212;2022-11-20T11:43:36;12.40;99.90
285;DHT22;127;48.770;9.212;2022-11-20T11:46:29;13.30;99.90
285;DHT22;127;48.770;9.212;2022-11-20T11:49:11;14.70;99.90
285;DHT22;127;48.770;9.212;2022-11-20T11:51:50;15.30;99.90
285;DHT22;127;48.770;9.212;2022-11-20T11:54:24;14.60;99.90
285;DHT22;127;48.770;9.212;2022-11-20T11:56:56;16.00;99.90
285;DHT22;127;48.770;9.212;2022-11-20T11:59:28;17.20;99.90
285;DHT22;127;48.770;9.212;2022-11-20T12:02:23;17.40;99.90
285;DHT22;127;48.770;9.212;2022-11-20T12:05:00;16.60;99.90
285;DHT22;127;48.770;9.212;2022-11-20T12:10:40;13.00;99.90
285;DHT22;127;48.770;9.212;2022-11-20T12:13:20;12.60;99.90
285;DHT22;127;48.770;9.212;2022-11-20T12:15:50;11.80;99.90
285;DHT22;127;48.770;9.212;2022-11-20T12:18:21;11.70;99.90
285;DHT22;127;48.770;9.212;2022-11-20T12:21:02;12.50;99.90
285;DHT22;127;48.770;9.212;2022-11-20T12:23:39;13.10;99.90
285;DHT22;127;48.770;9.212;2022-11-20T12:26:18;14.80;99.90
285;DHT22;127;48.770;9.212;2022-11-20T12:28:59;15.10;99.90
285;DHT22;127;48.770;9.212;2022-11-20T12:31:42;15.80;99.90
285;DHT22;127;48.770;9.212;2022-11-20T12:37:30;16.00;99.90
285;DHT22;127;48.770;9.212;2022-11-20T12:40:09;15.60;99.90
285;DHT22;127;48.770;9.212;2022-11-20T12:42:52;16.00;99.90
285;DHT22;127;48.770;9.212;2022-11-20T12:46:02;16.40;99.90
285;DHT22;127;48.770;9.212;2022-11-20T12:49:08;17.10;99.90
285;DHT22;127;48.770;9.212;2022-11-20T12:51:58;14.90;99.90
285;DHT22;127;48.770;9.212;2022-11-20T12:57:45;15.60;99.90
285;DHT22;127;48.770;9.212;2022-11-20T13:00:18;16.10;99.90
285;DHT22;127;48.770;9.212;2022-11-20T13:05:55;16.40;99.90
285;DHT22;127;48.770;9.212;2022-11-20T13:08:31;16.40;99.90
285;DHT22;127;48.770;9.212;2022-11-20T13:11:07;16.80;99.90
285;DHT22;127;48.770;9.212;2022-11-20T13:13:59;17.10;99.90
285;DHT22;127;48.770;9.212;2022-11-20T13:16:36;16.60;99.90
285;DHT22;127;48.770;9.212;2022-11-20T13:19:10;17.00;99.90
285;DHT22;127;48.770;9.212;2022-11-20T13:21:41;15.90;99.90
285;DHT22;127;48.770;9.212;2022-11-20T13:24:22;14.30;99.90
285;DHT22;127;48.770;9.212;2022-11-20T13:27:03;13.00;99.90
285;DHT22;127;48.770;9.212;2022-11-20T13:29:36;12.50;99.90
285;DHT22;127;48.770;9.212;2022-11-20T13:32:07;12.60;99.90
285;DHT22;127;48.770;9.212;2022-11-20T13:34:52;12.30;99.90
285;DHT22;127;48.770;9.212;2022-11-20T13:37:28;12.10;99.90
285;DHT22;127;48.770;9.212;2022-11-20T13:40:21;12.60;99.90
285;DHT22;127;48.770;9.212;2022-11-20T13:43:02;12.50;99.90
285;DHT22;127;48.770;9.212;2022-11-20T13:45:35;12.20;99.90
285;DHT22;127;48.770;9.212;2022-11-20T13:48:16;11.40;99.90
285;DHT22;127;48.770;9.212;2022-11-20T13:51:07;11.00;99.90
285;DHT22;127;48.770;9.212;2022-11-20T13:54:04;10.10;99.90
285;DHT22;127;48.770;9.212;2022-11-20T13:56:45;9.80;99.90
285;DHT22;127;48.770;9.212;2022-11-20T13:59:30;10.00;99.90
285;DHT22;127;48.770;9.212;2022-11-20T14:02:10;9.90;99.90
285;DHT22;127;48.770;9.212;2022-11-20T14:04:43;9.70;99.90
285;DHT22;127;48.770;9.212;2022-11-20T14:07:13;9.50;99.90
285;DHT22;127;48.770;9.212;2022-11-20T14:09:50;9.10;99.90
285;DHT22;127;48.770;9.212;2022-11-20T14:12:23;9.10;99.90
285;DHT22;127;48.770;9.212;2022-11-20T14:14:55;9.00;99.90
285;DHT22;127;48.770;9.212;2022-11-20T14:17:31;9.90;99.90
285;DHT22;127;48.770;9.212;2022-11-20T14:20:02;10.50;99.90
285;DHT22;127;48.770;9.212;2022-11-20T14:22:31;10.50;99.90
285;DHT22;127;48.770;9.212;2022-11-20T14:25:06;10.40;99.90
285;DHT22;127;48.770;9.212;2022-11-20T14:27:37;9.30;99.90
285;DHT22;127;48.770;9.212;2022-11-20T14:30:13;9.00;99.90
285;DHT22;127;48.770;9.212;2022-11-20T14:32:46;8.80;99.90
285;DHT22;127;48.770;9.212;2022-11-20T14:35:20;8.70;99.90
285;DHT22;127;48.770;9.212;2022-11-20T14:37:50;8.10;99.90
285;DHT22;127;48.770;9.212;2022-11-20T14:40:28;7.80;99.90
285;DHT22;127;48.770;9.212;2022-11-20T14:42:57;7.80;99.90
285;DHT22;127;48.770;9.212;2022-11-20T14:45:27;8.00;99.90
285;DHT22;127;48.770;9.212;2022-11-20T14:47:58;7.90;99.90
285;DHT22;127;48.770;9.212;2022-11-20T14:50:29;7.70;99.90
285;DHT22;127;48.770;9.212;2022-11-20T14:52:59;7.70;99.90
285;DHT22;127;48.770;9.212;2022-11-20T14:55:30;7.60;99.90
285;DHT22;127;48.770;9.212;2022-11-20T14:58:00;7.70;99.90
285;DHT22;127;48.770;9.212;2022-11-20T15:00:30;7.70;99.90
285;DHT22;127;48.770;9.212;2022-11-20T15:03:02;7.50;99.90
285;DHT22;127;48.770;9.212;2022-11-20T15:05:45;7.40;99.90
285;DHT22;127;48.770;9.212;2022-11-20T15:08:14;7.40;99.90
285;DHT22;127;48.770;9.212;2022-11-20T15:10:47;7.30;99.90
285;DHT22;127;48.770;9.212;2022-11-20T15:13:20;7.30;99.90
285;DHT22;127;48.770;9.212;2022-11-20T15:15:52;7.20;99.90
285;DHT22;127;48.770;9.212;2022-11-20T15:18:28;7.10;99.90
285;DHT22;127;48.770;9.212;2022-11-20T15:21:00;7.00;99.90
285;DHT22;127;48.770;9.212;2022-11-20T15:23:29;7.00;99.90
285;DHT22;127;48.770;9.212;2022-11-20T15:25:58;7.00;99.90
285;DHT22;127;48.770;9.212;2022-11-20T15:28:30;6.80;99.90
285;DHT22;127;48.770;9.212;2022-11-20T15:31:00;6.80;99.90
285;DHT22;127;48.770;9.212;2022-11-20T15:33:31;6.80;99.90
285;DHT22;127;48.770;9.212;2022-11-20T15:36:00;6.70;99.90
285;DHT22;127;48.770;9.212;2022-11-20T15:38:31;6.70;99.90
285;DHT22;127;48.770;9.212;2022-11-20T15:41:01;6.60;99.90
285;DHT22;127;48.770;9.212;2022-11-20T15:43:29;6.50;99.90
285;DHT22;127;48.770;9.212;2022-11-20T15:46:00;6.50;99.90
285;DHT22;127;48.770;9.212;2022-11-20T15:48:35;6.40;99.90
285;DHT22;127;48.770;9.212;2022-11-20T15:51:14;6.40;99.90
285;DHT22;127;48.770;9.212;2022-11-20T15:53:48;6.40;99.90
285;DHT22;127;48.770;9.212;2022-11-20T15:56:16;6.30;99.90
285;DHT22;127;48.770;9.212;2022-11-20T15:58:45;6.30;99.90
285;DHT22;127;48.770;9.212;2022-11-20T16:01:16;6.20;99.90
285;DHT22;127;48.770;9.212;2022-11-20T16:03:48;6.20;99.90
285;DHT22;127;48.770;9.212;2022-11-20T16:06:17;6.20;99.90
285;DHT22;127;48.770;9.212;2022-11-20T16:08:45;6.20;99.90
285;DHT22;127;48.770;9.212;2022-11-20T16:11:17;6.20;99.90
285;DHT22;127;48.770;9.212;2022-11-20T16:13:46;6.20;99.90
285;DHT22;127;48.770;9.212;2022-11-20T16:16:30;6.20;99.90
285;DHT22;127;48.770;9.212;2022-11-20T16:19:02;6.20;99.90
285;DHT22;127;48.770;9.212;2022-11-20T16:21:31;6.10;99.90
285;DHT22;127;48.770;9.212;2022-11-20T16:24:02;6.20;99.90
285;DHT22;127;48.770;9.212;2022-11-20T16:26:32;6.20;99.90
285;DHT22;127;48.770;9.212;2022-11-20T16:29:02;6.10;99.90
285;DHT22;127;48.770;9.212;2022-11-20T16:31:32;6.10;99.90
285;DHT22;127;48.770;9.212;2022-11-20T16:34:07;6.10;99.90
285;DHT22;127;48.770;9.212;2022-11-20T16:36:39;6.20;99.90
285;DHT22;127;48.770;9.212;2022-11-20T16:39:09;6.20;99.90
285;DHT22;127;48.770;9.212;2022-11-20T16:41:38;6.20;99.90
285;DHT22;127;48.770;9.212;2022-11-20T16:44:09;6.30;99.90
285;DHT22;127;48.770;9.212;2022-11-20T16:46:39;6.20;99.90
285;DHT22;127;48.770;9.212;2022-11-20T16:49:13;6.20;99.90
285;DHT22;127;48.770;9.212;2022-11-20T16:51:42;6.20;99.90
285;DHT22;127;48.770;9.212;2022-11-20T16:54:11;6.30;99.90
285;DHT22;127;48.770;9.212;2022-11-20T16:56:40;6.30;99.90
285;DHT22;127;48.770;9.212;2022-11-20T16:59:14;6.30;99.90
285;DHT22;127;48.770;9.212;2022-11-20T17:01:42;6.30;99.90
285;DHT22;127;48.770;9.212;2022-11-20T17:04:14;6.30;99.90
285;DHT22;127;48.770;9.212;2022-11-20T17:06:43;6.40;99.90
285;DHT22;127;48.770;9.212;2022-11-20T17:09:12;6.30;99.90
285;DHT22;127;48.770;9.212;2022-11-20T17:11:41;6.30;99.90
285;DHT22;127;48.770;9.212;2022-11-20T17:14:10;6.30;99.90
285;DHT22;127;48.770;9.212;2022-11-20T17:16:40;6.40;99.90
285;DHT22;127;48.770;9.212;2022-11-20T17:19:13;6.30;99.90
285;DHT22;127;48.770;9.212;2022-11-20T17:21:42;6.30;99.90
285;DHT22;127;48.770;9.212;2022-11-20T17:24:12;6.30;99.90
285;DHT22;127;48.770;9.212;2022-11-20T17:26:42;6.30;99.90
285;DHT22;127;48.770;9.212;2022-11-20T17:29:13;6.30;99.90
285;DHT22;127;48.770;9.212;2022-11-20T17:31:42;6.30;99.90
285;DHT22;127;48.770;9.212;2022-11-20T17:34:16;6.30;99.90
285;DHT22;127;48.770;9.212;2022-11-20T17:36:45;6.30;99.90